Caldas Novas, Brazil
Current Conditions -  °F | °C
As of 12:00 PM on Friday 28 Nov 2014 (Local Time) from SBUL Reporting Station
Overcast Overcast  
Wind Chill: 72°   Ceiling: 1000
Heat Index: 72°   Visibility: 6mi
Dew Point: 66°   Wind: 5mph
Humidity: 83%   Direction: 330°NNW
Pressure: 30.09"   Gusts: NA
Location:  17.74°S, 48.62°W
Report Text: SBUL 281400Z 33004KT 9999 BKN010 OVC100 22/19 Q1019
Loading
Personal Weather Stations






























Interactive Weather Map New forecast layout! Learn more

10-Day Weather Forecast

Advertisements
Track Severe Weather on mobile